Airfield :
LOGIN :

Register | Disclaimer

   EN    FR    IT 

 










Legend :    VFR   Marginal VFR   IFR   Intensive IFR   Very Intensive IFR
Visi :
Ceiling :
>= 8 km
>= 3000ft
5 to 8 km
1000 to 3000 ft
1500m to 5 km
500 to 1000 ft
800 to 1500m
200 to 500 ft
< 800m
< 200 ft
Symbols :   Thunderstorms  Fog  Heavy snow  Heavy precipitations  Wind > 20 kt
SIGMETs :     Misc.  Thunderstorms  Icing  Turbulence  Mountain Waves  Volcanic Ashes







- Airport Elevation : 436 ft
- IATA code : BTS


LZIB - Bratislava

CURRENT METAR :
  • 170730Z 07003KT 7000 NSC 13/13 Q1027 NOSIG

EXPIRED METARs :
  • 170700Z 06002KT 7000 3100E NSC 12/12 Q1027 NOSIG
  • 170630Z 07003KT 7000 0600SE R31/0450N R22/P2000N BCFG NSC 11/10 Q1027 BECMG NSW
  • 170600Z 05002KT 0600 R31/0300N R22/0350N FG NSC 09/09 Q1026 NOSIG
  • 170530Z 02002KT 0800 R31/0325D R22/1800D FG FEW002 09/09 Q1026 TEMPO 0400 FG BKN002
  • 170500Z 05004KT 0400 R31/0300N R22/0450N FG SCT002 08/08 Q1026 TEMPO 0150 FG BKN001

TAF TAF LZIB
Valid from the 17 at 06:00 until the 18 at 06:00 UTC


170500Z 1706/1806 05004KT 1500 BR FEW002 SCT006
TEMPO 1706/1707 0500 FG BKN001
BECMG 1707/1709 13007KT 4000 BCFG FEW005
BECMG 1709/1711 CAVOK
BECMG 1720/1722 07004KT 2000 BR BKN002
TEMPO 1722/1806 0300 FG OVC001
No reported NOTAMs for that airfield.



MET'MAP, your aeronautical weather chart ! - Copyright ORBIFLY December 2007 - Disclaimer

ORBIFLY MET'MAP TEAM :

Programming & Development : Alexandra Zaïnal
Concept & Development : Baudouin d'Aumeries
Co-Development & Prog : Marc-Olivier Méhu
Technical & hardware support : Manuel Goepfert

Contact : metmap@orbifly.com




SOURCES & CREDITS :

   NOAA